sensor_id;sensor_type;location;lat;lon;timestamp;temperature;humidity
39017;DHT22;24784;45.582;5.276;2023-04-06T00:01:38;3.40;95.00
39017;DHT22;24784;45.582;5.276;2023-04-06T00:04:04;3.30;95.20
39017;DHT22;24784;45.582;5.276;2023-04-06T00:06:30;3.40;95.40
39017;DHT22;24784;45.582;5.276;2023-04-06T00:08:57;3.20;95.30
39017;DHT22;24784;45.582;5.276;2023-04-06T00:11:23;3.30;95.50
39017;DHT22;24784;45.582;5.276;2023-04-06T00:13:50;3.20;95.50
39017;DHT22;24784;45.582;5.276;2023-04-06T00:16:16;3.20;95.70
39017;DHT22;24784;45.582;5.276;2023-04-06T00:18:42;3.20;95.80
39017;DHT22;24784;45.582;5.276;2023-04-06T00:21:07;3.10;95.90
39017;DHT22;24784;45.582;5.276;2023-04-06T00:23:33;3.10;95.80
39017;DHT22;24784;45.582;5.276;2023-04-06T00:25:59;3.00;96.00
39017;DHT22;24784;45.582;5.276;2023-04-06T00:28:25;3.20;95.80
39017;DHT22;24784;45.582;5.276;2023-04-06T00:30:54;3.10;96.10
39017;DHT22;24784;45.582;5.276;2023-04-06T00:33:21;3.00;96.20
39017;DHT22;24784;45.582;5.276;2023-04-06T00:35:47;3.00;96.20
39017;DHT22;24784;45.582;5.276;2023-04-06T00:38:14;3.00;96.30
39017;DHT22;24784;45.582;5.276;2023-04-06T00:40:40;2.80;96.80
39017;DHT22;24784;45.582;5.276;2023-04-06T00:43:07;2.90;96.40
39017;DHT22;24784;45.582;5.276;2023-04-06T00:45:34;3.00;96.30
39017;DHT22;24784;45.582;5.276;2023-04-06T00:48:00;3.00;96.50
39017;DHT22;24784;45.582;5.276;2023-04-06T00:50:27;2.90;96.30
39017;DHT22;24784;45.582;5.276;2023-04-06T00:52:56;2.80;96.50
39017;DHT22;24784;45.582;5.276;2023-04-06T00:55:22;3.00;96.50
39017;DHT22;24784;45.582;5.276;2023-04-06T00:57:48;2.80;96.70
39017;DHT22;24784;45.582;5.276;2023-04-06T01:00:16;2.80;96.80
39017;DHT22;24784;45.582;5.276;2023-04-06T01:02:42;2.80;97.00
39017;DHT22;24784;45.582;5.276;2023-04-06T01:05:08;2.70;96.70
39017;DHT22;24784;45.582;5.276;2023-04-06T01:07:34;2.80;96.70
39017;DHT22;24784;45.582;5.276;2023-04-06T01:10:00;2.70;96.70
39017;DHT22;24784;45.582;5.276;2023-04-06T01:12:26;2.80;96.90
39017;DHT22;24784;45.582;5.276;2023-04-06T01:14:52;2.60;96.90
39017;DHT22;24784;45.582;5.276;2023-04-06T01:17:18;2.60;97.00
39017;DHT22;24784;45.582;5.276;2023-04-06T01:19:44;2.60;97.20
39017;DHT22;24784;45.582;5.276;2023-04-06T01:22:15;2.60;97.30
39017;DHT22;24784;45.582;5.276;2023-04-06T01:24:41;2.60;97.30
39017;DHT22;24784;45.582;5.276;2023-04-06T01:27:07;2.70;96.80
39017;DHT22;24784;45.582;5.276;2023-04-06T01:29:33;2.70;96.50
39017;DHT22;24784;45.582;5.276;2023-04-06T01:31:59;2.60;96.90
39017;DHT22;24784;45.582;5.276;2023-04-06T01:34:24;2.40;96.90
39017;DHT22;24784;45.582;5.276;2023-04-06T01:36:50;2.40;97.00
39017;DHT22;24784;45.582;5.276;2023-04-06T01:39:16;2.60;96.70
39017;DHT22;24784;45.582;5.276;2023-04-06T01:41:42;2.50;96.80
39017;DHT22;24784;45.582;5.276;2023-04-06T01:44:08;2.60;97.20
39017;DHT22;24784;45.582;5.276;2023-04-06T01:46:33;2.50;97.50
39017;DHT22;24784;45.582;5.276;2023-04-06T01:48:59;2.50;97.30
39017;DHT22;24784;45.582;5.276;2023-04-06T01:51:25;2.40;97.20
39017;DHT22;24784;45.582;5.276;2023-04-06T01:53:52;2.40;97.40
39017;DHT22;24784;45.582;5.276;2023-04-06T01:56:18;2.20;97.50
39017;DHT22;24784;45.582;5.276;2023-04-06T01:58:44;2.00;97.80
39017;DHT22;24784;45.582;5.276;2023-04-06T02:01:09;2.10;98.10
39017;DHT22;24784;45.582;5.276;2023-04-06T02:03:35;2.00;98.20
39017;DHT22;24784;45.582;5.276;2023-04-06T02:06:01;2.20;98.20
39017;DHT22;24784;45.582;5.276;2023-04-06T02:08:27;2.20;98.20
39017;DHT22;24784;45.582;5.276;2023-04-06T02:10:53;2.20;98.30
39017;DHT22;24784;45.582;5.276;2023-04-06T02:13:18;2.20;98.30
39017;DHT22;24784;45.582;5.276;2023-04-06T02:15:44;2.20;98.50
39017;DHT22;24784;45.582;5.276;2023-04-06T02:18:10;2.30;98.00
39017;DHT22;24784;45.582;5.276;2023-04-06T02:20:36;2.40;97.80
39017;DHT22;24784;45.582;5.276;2023-04-06T02:23:02;2.40;97.80
39017;DHT22;24784;45.582;5.276;2023-04-06T02:25:28;2.30;97.90
39017;DHT22;24784;45.582;5.276;2023-04-06T02:27:54;2.20;98.20
39017;DHT22;24784;45.582;5.276;2023-04-06T02:30:20;2.10;98.20
39017;DHT22;24784;45.582;5.276;2023-04-06T02:32:45;2.10;98.20
39017;DHT22;24784;45.582;5.276;2023-04-06T02:35:11;2.10;98.30
39017;DHT22;24784;45.582;5.276;2023-04-06T02:37:37;2.10;98.40
39017;DHT22;24784;45.582;5.276;2023-04-06T02:40:03;2.00;98.40
39017;DHT22;24784;45.582;5.276;2023-04-06T02:42:29;2.00;98.50
39017;DHT22;24784;45.582;5.276;2023-04-06T02:44:55;2.10;98.40
39017;DHT22;24784;45.582;5.276;2023-04-06T02:47:21;2.10;98.40
39017;DHT22;24784;45.582;5.276;2023-04-06T02:49:47;2.00;98.60
39017;DHT22;24784;45.582;5.276;2023-04-06T02:52:12;2.00;98.60
39017;DHT22;24784;45.582;5.276;2023-04-06T02:54:38;2.10;98.50
39017;DHT22;24784;45.582;5.276;2023-04-06T02:57:04;2.00;98.50
39017;DHT22;24784;45.582;5.276;2023-04-06T02:59:31;1.90;98.80
39017;DHT22;24784;45.582;5.276;2023-04-06T03:01:57;2.00;98.80
39017;DHT22;24784;45.582;5.276;2023-04-06T03:04:22;2.00;98.70
39017;DHT22;24784;45.582;5.276;2023-04-06T03:06:51;2.10;98.80
39017;DHT22;24784;45.582;5.276;2023-04-06T03:09:17;2.10;98.60
39017;DHT22;24784;45.582;5.276;2023-04-06T03:11:42;2.00;98.80
39017;DHT22;24784;45.582;5.276;2023-04-06T03:14:08;1.90;98.70
39017;DHT22;24784;45.582;5.276;2023-04-06T03:16:34;2.00;99.90
39017;DHT22;24784;45.582;5.276;2023-04-06T03:19:00;1.80;99.20
39017;DHT22;24784;45.582;5.276;2023-04-06T03:21:26;1.80;99.30
39017;DHT22;24784;45.582;5.276;2023-04-06T03:23:52;1.60;99.20
39017;DHT22;24784;45.582;5.276;2023-04-06T03:26:18;1.80;99.30
39017;DHT22;24784;45.582;5.276;2023-04-06T03:28:43;1.80;99.30
39017;DHT22;24784;45.582;5.276;2023-04-06T03:31:09;1.60;99.40
39017;DHT22;24784;45.582;5.276;2023-04-06T03:33:35;1.70;99.50
39017;DHT22;24784;45.582;5.276;2023-04-06T03:36:01;1.70;99.60
39017;DHT22;24784;45.582;5.276;2023-04-06T03:38:27;1.80;99.50
39017;DHT22;24784;45.582;5.276;2023-04-06T03:40:52;1.80;99.30
39017;DHT22;24784;45.582;5.276;2023-04-06T03:43:18;1.70;99.20
39017;DHT22;24784;45.582;5.276;2023-04-06T03:45:44;1.60;99.40
39017;DHT22;24784;45.582;5.276;2023-04-06T03:48:10;1.60;99.60
39017;DHT22;24784;45.582;5.276;2023-04-06T03:50:36;1.40;99.70
39017;DHT22;24784;45.582;5.276;2023-04-06T03:53:01;1.40;99.90
39017;DHT22;24784;45.582;5.276;2023-04-06T03:55:28;1.50;99.90
39017;DHT22;24784;45.582;5.276;2023-04-06T03:57:54;1.60;99.80
39017;DHT22;24784;45.582;5.276;2023-04-06T04:00:21;1.60;99.80
39017;DHT22;24784;45.582;5.276;2023-04-06T04:02:47;1.50;99.90
39017;DHT22;24784;45.582;5.276;2023-04-06T04:05:12;1.50;99.90
39017;DHT22;24784;45.582;5.276;2023-04-06T04:07:38;1.50;99.90
39017;DHT22;24784;45.582;5.276;2023-04-06T04:10:04;1.40;99.70
39017;DHT22;24784;45.582;5.276;2023-04-06T04:12:30;1.60;99.90
39017;DHT22;24784;45.582;5.276;2023-04-06T04:14:56;1.60;99.70
39017;DHT22;24784;45.582;5.276;2023-04-06T04:17:22;1.60;99.80
39017;DHT22;24784;45.582;5.276;2023-04-06T04:19:47;1.60;99.90
39017;DHT22;24784;45.582;5.276;2023-04-06T04:22:13;1.60;99.90
39017;DHT22;24784;45.582;5.276;2023-04-06T04:24:39;1.50;99.90
39017;DHT22;24784;45.582;5.276;2023-04-06T04:27:05;1.50;99.90
39017;DHT22;24784;45.582;5.276;2023-04-06T04:29:31;1.60;99.90
39017;DHT22;24784;45.582;5.276;2023-04-06T04:31:56;1.40;99.90
39017;DHT22;24784;45.582;5.276;2023-04-06T04:34:22;1.40;99.90
39017;DHT22;24784;45.582;5.276;2023-04-06T04:36:52;1.30;99.90
39017;DHT22;24784;45.582;5.276;2023-04-06T04:39:18;1.40;99.90
39017;DHT22;24784;45.582;5.276;2023-04-06T04:41:43;1.50;99.90
39017;DHT22;24784;45.582;5.276;2023-04-06T04:44:09;1.60;99.90
39017;DHT22;24784;45.582;5.276;2023-04-06T04:46:35;1.60;99.90
39017;DHT22;24784;45.582;5.276;2023-04-06T04:49:01;1.60;99.90
39017;DHT22;24784;45.582;5.276;2023-04-06T04:51:27;1.60;99.90
39017;DHT22;24784;45.582;5.276;2023-04-06T04:53:53;1.70;99.90
39017;DHT22;24784;45.582;5.276;2023-04-06T04:56:18;1.70;99.90
39017;DHT22;24784;45.582;5.276;2023-04-06T04:58:44;1.80;99.90
39017;DHT22;24784;45.582;5.276;2023-04-06T05:01:10;1.80;99.90
39017;DHT22;24784;45.582;5.276;2023-04-06T05:03:36;1.80;99.90
39017;DHT22;24784;45.582;5.276;2023-04-06T05:06:04;1.70;99.90
39017;DHT22;24784;45.582;5.276;2023-04-06T05:08:30;1.70;99.90
39017;DHT22;24784;45.582;5.276;2023-04-06T05:10:56;1.80;99.90
39017;DHT22;24784;45.582;5.276;2023-04-06T05:13:22;1.80;99.90
39017;DHT22;24784;45.582;5.276;2023-04-06T05:15:48;1.80;99.90
39017;DHT22;24784;45.582;5.276;2023-04-06T05:18:14;1.70;99.90
39017;DHT22;24784;45.582;5.276;2023-04-06T05:20:40;1.80;99.90
39017;DHT22;24784;45.582;5.276;2023-04-06T05:23:06;1.70;99.90
39017;DHT22;24784;45.582;5.276;2023-04-06T05:25:32;1.70;99.90
39017;DHT22;24784;45.582;5.276;2023-04-06T05:27:58;1.80;99.90
39017;DHT22;24784;45.582;5.276;2023-04-06T05:30:24;1.90;99.90
39017;DHT22;24784;45.582;5.276;2023-04-06T05:32:51;2.00;99.90
39017;DHT22;24784;45.582;5.276;2023-04-06T05:35:16;2.10;99.90
39017;DHT22;24784;45.582;5.276;2023-04-06T05:37:43;2.20;99.90
39017;DHT22;24784;45.582;5.276;2023-04-06T05:40:09;2.10;99.90
39017;DHT22;24784;45.582;5.276;2023-04-06T05:42:38;2.20;99.90
39017;DHT22;24784;45.582;5.276;2023-04-06T05:45:05;2.20;99.90
39017;DHT22;24784;45.582;5.276;2023-04-06T05:47:32;2.30;99.90
39017;DHT22;24784;45.582;5.276;2023-04-06T05:49:57;2.20;99.90
39017;DHT22;24784;45.582;5.276;2023-04-06T05:52:23;2.20;99.90
39017;DHT22;24784;45.582;5.276;2023-04-06T05:54:49;2.20;99.90
39017;DHT22;24784;45.582;5.276;2023-04-06T05:57:16;2.30;99.90
39017;DHT22;24784;45.582;5.276;2023-04-06T05:59:44;2.30;99.90
39017;DHT22;24784;45.582;5.276;2023-04-06T06:02:10;2.30;99.90
39017;DHT22;24784;45.582;5.276;2023-04-06T06:04:36;2.30;99.90
39017;DHT22;24784;45.582;5.276;2023-04-06T06:07:02;2.30;99.90
39017;DHT22;24784;45.582;5.276;2023-04-06T06:09:27;2.40;99.90
39017;DHT22;24784;45.582;5.276;2023-04-06T06:11:53;2.60;99.90
39017;DHT22;24784;45.582;5.276;2023-04-06T06:14:19;2.60;99.90
39017;DHT22;24784;45.582;5.276;2023-04-06T06:16:45;2.70;99.90
39017;DHT22;24784;45.582;5.276;2023-04-06T06:19:11;2.90;99.90
39017;DHT22;24784;45.582;5.276;2023-04-06T06:21:37;3.00;99.90
39017;DHT22;24784;45.582;5.276;2023-04-06T06:24:03;3.00;99.90
39017;DHT22;24784;45.582;5.276;2023-04-06T06:26:29;3.10;99.90
39017;DHT22;24784;45.582;5.276;2023-04-06T06:28:54;3.10;99.90
39017;DHT22;24784;45.582;5.276;2023-04-06T06:31:20;3.20;99.90
39017;DHT22;24784;45.582;5.276;2023-04-06T06:33:48;3.30;99.90
39017;DHT22;24784;45.582;5.276;2023-04-06T06:36:17;3.40;99.90
39017;DHT22;24784;45.582;5.276;2023-04-06T06:38:43;3.50;99.90
39017;DHT22;24784;45.582;5.276;2023-04-06T06:41:09;3.60;99.90
39017;DHT22;24784;45.582;5.276;2023-04-06T06:43:35;3.80;99.70
39017;DHT22;24784;45.582;5.276;2023-04-06T06:46:00;3.90;99.40
39017;DHT22;24784;45.582;5.276;2023-04-06T06:48:26;4.00;98.90
39017;DHT22;24784;45.582;5.276;2023-04-06T06:50:52;4.10;98.50
39017;DHT22;24784;45.582;5.276;2023-04-06T06:53:19;4.30;98.60
39017;DHT22;24784;45.582;5.276;2023-04-06T06:55:45;4.40;98.80
39017;DHT22;24784;45.582;5.276;2023-04-06T06:58:11;4.40;98.50
39017;DHT22;24784;45.582;5.276;2023-04-06T07:00:37;4.50;98.00
39017;DHT22;24784;45.582;5.276;2023-04-06T07:03:03;4.60;97.80
39017;DHT22;24784;45.582;5.276;2023-04-06T07:05:28;4.70;97.50
39017;DHT22;24784;45.582;5.276;2023-04-06T07:07:55;4.70;97.40
39017;DHT22;24784;45.582;5.276;2023-04-06T07:10:21;4.80;97.80
39017;DHT22;24784;45.582;5.276;2023-04-06T07:12:47;4.90;97.90
39017;DHT22;24784;45.582;5.276;2023-04-06T07:15:13;4.90;97.50
39017;DHT22;24784;45.582;5.276;2023-04-06T07:17:39;5.00;97.50
39017;DHT22;24784;45.582;5.276;2023-04-06T07:20:06;5.10;97.60
39017;DHT22;24784;45.582;5.276;2023-04-06T07:22:32;5.20;97.30
39017;DHT22;24784;45.582;5.276;2023-04-06T07:24:58;5.20;96.90
39017;DHT22;24784;45.582;5.276;2023-04-06T07:27:24;5.30;97.10
39017;DHT22;24784;45.582;5.276;2023-04-06T07:29:50;5.30;97.00
39017;DHT22;24784;45.582;5.276;2023-04-06T07:32:16;5.30;97.30
39017;DHT22;24784;45.582;5.276;2023-04-06T07:34:41;5.30;97.00
39017;DHT22;24784;45.582;5.276;2023-04-06T07:37:07;5.40;97.40
39017;DHT22;24784;45.582;5.276;2023-04-06T07:39:34;5.40;97.50
39017;DHT22;24784;45.582;5.276;2023-04-06T07:42:00;5.40;97.70
39017;DHT22;24784;45.582;5.276;2023-04-06T07:44:26;5.40;97.10
39017;DHT22;24784;45.582;5.276;2023-04-06T07:46:51;5.50;97.20
39017;DHT22;24784;45.582;5.276;2023-04-06T07:49:17;5.50;96.80
39017;DHT22;24784;45.582;5.276;2023-04-06T07:51:43;5.50;96.40
39017;DHT22;24784;45.582;5.276;2023-04-06T07:54:09;5.60;96.80
39017;DHT22;24784;45.582;5.276;2023-04-06T07:56:34;5.80;97.20
39017;DHT22;24784;45.582;5.276;2023-04-06T07:59:00;5.80;96.60
39017;DHT22;24784;45.582;5.276;2023-04-06T08:01:28;5.90;96.60
39017;DHT22;24784;45.582;5.276;2023-04-06T08:03:54;6.00;96.30
39017;DHT22;24784;45.582;5.276;2023-04-06T08:06:21;6.10;96.30
39017;DHT22;24784;45.582;5.276;2023-04-06T08:08:46;6.20;97.00
39017;DHT22;24784;45.582;5.276;2023-04-06T08:11:12;6.50;96.70
39017;DHT22;24784;45.582;5.276;2023-04-06T08:13:38;6.80;96.10
39017;DHT22;24784;45.582;5.276;2023-04-06T08:16:04;7.00;95.70
39017;DHT22;24784;45.582;5.276;2023-04-06T08:18:30;7.40;95.50
39017;DHT22;24784;45.582;5.276;2023-04-06T08:20:56;7.80;94.80
39017;DHT22;24784;45.582;5.276;2023-04-06T08:23:22;8.00;94.00
39017;DHT22;24784;45.582;5.276;2023-04-06T08:25:48;8.20;94.40
39017;DHT22;24784;45.582;5.276;2023-04-06T08:28:14;8.40;93.90
39017;DHT22;24784;45.582;5.276;2023-04-06T08:30:41;8.70;94.00
39017;DHT22;24784;45.582;5.276;2023-04-06T08:33:07;9.10;93.50
39017;DHT22;24784;45.582;5.276;2023-04-06T08:35:33;9.60;92.90
39017;DHT22;24784;45.582;5.276;2023-04-06T08:37:58;10.00;92.30
39017;DHT22;24784;45.582;5.276;2023-04-06T08:40:24;10.40;90.40
39017;DHT22;24784;45.582;5.276;2023-04-06T08:42:54;11.00;91.20
39017;DHT22;24784;45.582;5.276;2023-04-06T08:45:20;11.60;91.10
39017;DHT22;24784;45.582;5.276;2023-04-06T08:47:50;11.40;88.50
39017;DHT22;24784;45.582;5.276;2023-04-06T08:50:17;11.50;85.60
39017;DHT22;24784;45.582;5.276;2023-04-06T08:52:49;11.50;87.40
39017;DHT22;24784;45.582;5.276;2023-04-06T08:55:15;11.60;84.70
39017;DHT22;24784;45.582;5.276;2023-04-06T08:57:42;11.60;87.40
39017;DHT22;24784;45.582;5.276;2023-04-06T09:00:10;11.70;85.00
39017;DHT22;24784;45.582;5.276;2023-04-06T09:02:41;12.40;85.00
39017;DHT22;24784;45.582;5.276;2023-04-06T09:05:08;12.80;81.70
39017;DHT22;24784;45.582;5.276;2023-04-06T09:07:36;13.00;84.90
39017;DHT22;24784;45.582;5.276;2023-04-06T09:10:03;13.60;82.00
39017;DHT22;24784;45.582;5.276;2023-04-06T09:12:31;13.90;78.80
39017;DHT22;24784;45.582;5.276;2023-04-06T09:14:58;13.80;73.70
39017;DHT22;24784;45.582;5.276;2023-04-06T09:17:28;13.80;75.70
39017;DHT22;24784;45.582;5.276;2023-04-06T09:19:56;13.90;74.60
39017;DHT22;24784;45.582;5.276;2023-04-06T09:22:22;13.80;74.20
39017;DHT22;24784;45.582;5.276;2023-04-06T09:24:53;13.90;72.90
39017;DHT22;24784;45.582;5.276;2023-04-06T09:27:35;14.10;74.30
39017;DHT22;24784;45.582;5.276;2023-04-06T09:32:31;14.50;64.90
39017;DHT22;24784;45.582;5.276;2023-04-06T09:35:08;14.40;68.20
39017;DHT22;24784;45.582;5.276;2023-04-06T09:37:34;14.40;66.30
39017;DHT22;24784;45.582;5.276;2023-04-06T09:40:07;14.00;69.40
39017;DHT22;24784;45.582;5.276;2023-04-06T09:42:33;14.70;65.90
39017;DHT22;24784;45.582;5.276;2023-04-06T09:45:00;14.70;66.10
39017;DHT22;24784;45.582;5.276;2023-04-06T09:47:27;15.70;62.40
39017;DHT22;24784;45.582;5.276;2023-04-06T09:49:57;15.50;60.50
39017;DHT22;24784;45.582;5.276;2023-04-06T09:52:31;15.10;57.60
39017;DHT22;24784;45.582;5.276;2023-04-06T09:54:59;15.70;59.30
39017;DHT22;24784;45.582;5.276;2023-04-06T10:00:09;17.60;57.60
39017;DHT22;24784;45.582;5.276;2023-04-06T10:05:42;15.30;58.60
39017;DHT22;24784;45.582;5.276;2023-04-06T10:08:08;14.90;59.30
39017;DHT22;24784;45.582;5.276;2023-04-06T10:10:35;16.90;58.40
39017;DHT22;24784;45.582;5.276;2023-04-06T10:13:02;18.00;56.00
39017;DHT22;24784;45.582;5.276;2023-04-06T10:15:29;18.10;53.20
39017;DHT22;24784;45.582;5.276;2023-04-06T10:17:56;17.10;57.10
39017;DHT22;24784;45.582;5.276;2023-04-06T10:23:00;16.80;56.90
39017;DHT22;24784;45.582;5.276;2023-04-06T10:25:30;16.70;56.60
39017;DHT22;24784;45.582;5.276;2023-04-06T10:28:07;16.00;55.10
39017;DHT22;24784;45.582;5.276;2023-04-06T10:30:35;17.40;59.20
39017;DHT22;24784;45.582;5.276;2023-04-06T10:33:11;16.60;54.00
39017;DHT22;24784;45.582;5.276;2023-04-06T10:35:37;15.50;54.90
39017;DHT22;24784;45.582;5.276;2023-04-06T10:38:04;15.70;57.40
39017;DHT22;24784;45.582;5.276;2023-04-06T10:40:31;16.50;57.60
39017;DHT22;24784;45.582;5.276;2023-04-06T10:43:08;16.20;55.90
39017;DHT22;24784;45.582;5.276;2023-04-06T10:45:34;16.00;57.10
39017;DHT22;24784;45.582;5.276;2023-04-06T10:48:04;15.20;57.40
39017;DHT22;24784;45.582;5.276;2023-04-06T10:50:38;15.20;59.50
39017;DHT22;24784;45.582;5.276;2023-04-06T10:53:05;15.60;58.10
39017;DHT22;24784;45.582;5.276;2023-04-06T10:55:31;16.30;59.10
39017;DHT22;24784;45.582;5.276;2023-04-06T10:57:57;16.20;56.40
39017;DHT22;24784;45.582;5.276;2023-04-06T11:00:23;16.00;57.70
39017;DHT22;24784;45.582;5.276;2023-04-06T11:02:50;16.10;58.20
39017;DHT22;24784;45.582;5.276;2023-04-06T11:05:16;16.30;53.00
39017;DHT22;24784;45.582;5.276;2023-04-06T11:07:42;16.40;53.80
39017;DHT22;24784;45.582;5.276;2023-04-06T11:10:08;16.00;52.00
39017;DHT22;24784;45.582;5.276;2023-04-06T11:12:34;15.60;53.60
39017;DHT22;24784;45.582;5.276;2023-04-06T11:15:01;16.70;53.20
39017;DHT22;24784;45.582;5.276;2023-04-06T11:17:35;17.30;50.50
39017;DHT22;24784;45.582;5.276;2023-04-06T11:20:02;16.30;53.40
39017;DHT22;24784;45.582;5.276;2023-04-06T11:22:29;15.10;54.10
39017;DHT22;24784;45.582;5.276;2023-04-06T11:25:08;14.60;57.40
39017;DHT22;24784;45.582;5.276;2023-04-06T11:27:34;14.50;59.00
39017;DHT22;24784;45.582;5.276;2023-04-06T11:30:01;14.60;59.00
39017;DHT22;24784;45.582;5.276;2023-04-06T11:32:27;14.70;59.50
39017;DHT22;24784;45.582;5.276;2023-04-06T11:34:53;14.50;59.10
39017;DHT22;24784;45.582;5.276;2023-04-06T11:37:19;14.70;59.60
39017;DHT22;24784;45.582;5.276;2023-04-06T11:39:54;14.70;57.80
39017;DHT22;24784;45.582;5.276;2023-04-06T11:42:29;14.50;57.50
39017;DHT22;24784;45.582;5.276;2023-04-06T11:44:56;13.90;57.70
39017;DHT22;24784;45.582;5.276;2023-04-06T11:47:30;14.30;60.30
39017;DHT22;24784;45.582;5.276;2023-04-06T11:50:06;14.90;57.60
39017;DHT22;24784;45.582;5.276;2023-04-06T11:52:33;15.00;57.30
39017;DHT22;24784;45.582;5.276;2023-04-06T11:55:09;15.10;58.90
39017;DHT22;24784;45.582;5.276;2023-04-06T11:57:35;14.90;57.30
39017;DHT22;24784;45.582;5.276;2023-04-06T12:00:01;14.80;58.50
39017;DHT22;24784;45.582;5.276;2023-04-06T12:02:27;14.40;60.20
39017;DHT22;24784;45.582;5.276;2023-04-06T12:04:53;14.30;60.20
39017;DHT22;24784;45.582;5.276;2023-04-06T12:07:19;14.50;58.70
39017;DHT22;24784;45.582;5.276;2023-04-06T12:09:44;14.80;57.30
39017;DHT22;24784;45.582;5.276;2023-04-06T12:12:10;14.20;55.50
39017;DHT22;24784;45.582;5.276;2023-04-06T12:14:36;14.70;57.50
39017;DHT22;24784;45.582;5.276;2023-04-06T12:17:02;14.90;58.40
39017;DHT22;24784;45.582;5.276;2023-04-06T12:19:28;15.00;57.50
39017;DHT22;24784;45.582;5.276;2023-04-06T12:21:54;14.70;55.40
39017;DHT22;24784;45.582;5.276;2023-04-06T12:24:20;14.40;55.60
39017;DHT22;24784;45.582;5.276;2023-04-06T12:26:46;14.60;57.00
39017;DHT22;24784;45.582;5.276;2023-04-06T12:29:12;14.50;57.00
39017;DHT22;24784;45.582;5.276;2023-04-06T12:31:39;14.00;56.20
39017;DHT22;24784;45.582;5.276;2023-04-06T12:34:06;14.10;59.40
39017;DHT22;24784;45.582;5.276;2023-04-06T12:36:32;14.30;59.10
39017;DHT22;24784;45.582;5.276;2023-04-06T12:38:59;14.50;55.70
39017;DHT22;24784;45.582;5.276;2023-04-06T12:41:26;14.80;56.80
39017;DHT22;24784;45.582;5.276;2023-04-06T12:43:52;14.90;58.40
39017;DHT22;24784;45.582;5.276;2023-04-06T12:46:18;14.80;55.80
39017;DHT22;24784;45.582;5.276;2023-04-06T12:48:45;15.10;56.10
39017;DHT22;24784;45.582;5.276;2023-04-06T12:51:12;15.20;57.20
39017;DHT22;24784;45.582;5.276;2023-04-06T12:53:37;15.30;56.10
39017;DHT22;24784;45.582;5.276;2023-04-06T12:56:14;15.10;57.20
39017;DHT22;24784;45.582;5.276;2023-04-06T12:58:41;15.00;57.30
39017;DHT22;24784;45.582;5.276;2023-04-06T13:01:07;15.10;57.60
39017;DHT22;24784;45.582;5.276;2023-04-06T13:03:34;14.90;55.00
39017;DHT22;24784;45.582;5.276;2023-04-06T13:06:01;14.90;55.60
39017;DHT22;24784;45.582;5.276;2023-04-06T13:08:26;15.20;57.40
39017;DHT22;24784;45.582;5.276;2023-04-06T13:10:55;15.20;57.40
39017;DHT22;24784;45.582;5.276;2023-04-06T13:13:27;15.20;57.30
39017;DHT22;24784;45.582;5.276;2023-04-06T13:15:55;15.30;56.40
39017;DHT22;24784;45.582;5.276;2023-04-06T13:18:24;15.30;55.50
39017;DHT22;24784;45.582;5.276;2023-04-06T13:20:50;15.30;54.90
39017;DHT22;24784;45.582;5.276;2023-04-06T13:23:16;15.10;56.00
39017;DHT22;24784;45.582;5.276;2023-04-06T13:25:41;14.80;55.90
39017;DHT22;24784;45.582;5.276;2023-04-06T13:28:08;15.00;56.60
39017;DHT22;24784;45.582;5.276;2023-04-06T13:30:34;15.30;58.90
39017;DHT22;24784;45.582;5.276;2023-04-06T13:33:00;15.30;60.00
39017;DHT22;24784;45.582;5.276;2023-04-06T13:35:26;15.20;55.20
39017;DHT22;24784;45.582;5.276;2023-04-06T13:37:51;15.20;56.70
39017;DHT22;24784;45.582;5.276;2023-04-06T13:40:18;15.10;56.00
39017;DHT22;24784;45.582;5.276;2023-04-06T13:42:44;15.30;57.30
39017;DHT22;24784;45.582;5.276;2023-04-06T13:45:11;15.30;54.70
39017;DHT22;24784;45.582;5.276;2023-04-06T13:47:37;15.30;55.30
39017;DHT22;24784;45.582;5.276;2023-04-06T13:50:03;15.30;56.00
39017;DHT22;24784;45.582;5.276;2023-04-06T13:52:29;15.40;55.70
39017;DHT22;24784;45.582;5.276;2023-04-06T13:54:55;15.20;57.90
39017;DHT22;24784;45.582;5.276;2023-04-06T13:57:21;15.00;54.10
39017;DHT22;24784;45.582;5.276;2023-04-06T13:59:47;15.00;56.80
39017;DHT22;24784;45.582;5.276;2023-04-06T14:02:15;15.10;59.10
39017;DHT22;24784;45.582;5.276;2023-04-06T14:04:40;15.00;55.20
39017;DHT22;24784;45.582;5.276;2023-04-06T14:07:06;14.90;57.00
39017;DHT22;24784;45.582;5.276;2023-04-06T14:09:33;15.00;57.40
39017;DHT22;24784;45.582;5.276;2023-04-06T14:11:59;14.70;55.40
39017;DHT22;24784;45.582;5.276;2023-04-06T14:14:25;15.00;55.40
39017;DHT22;24784;45.582;5.276;2023-04-06T14:16:51;14.70;57.10
39017;DHT22;24784;45.582;5.276;2023-04-06T14:19:17;14.70;57.60
39017;DHT22;24784;45.582;5.276;2023-04-06T14:21:47;14.70;60.00
39017;DHT22;24784;45.582;5.276;2023-04-06T14:24:14;14.70;60.80
39017;DHT22;24784;45.582;5.276;2023-04-06T14:26:40;14.70;56.10
39017;DHT22;24784;45.582;5.276;2023-04-06T14:29:09;15.00;57.70
39017;DHT22;24784;45.582;5.276;2023-04-06T14:31:35;15.20;55.80
39017;DHT22;24784;45.582;5.276;2023-04-06T14:34:02;15.00;53.80
39017;DHT22;24784;45.582;5.276;2023-04-06T14:36:31;15.20;54.00
39017;DHT22;24784;45.582;5.276;2023-04-06T14:39:04;15.10;50.50
39017;DHT22;24784;45.582;5.276;2023-04-06T14:41:30;15.10;54.00
39017;DHT22;24784;45.582;5.276;2023-04-06T14:43:57;14.90;52.60
39017;DHT22;24784;45.582;5.276;2023-04-06T14:46:23;14.80;51.20
39017;DHT22;24784;45.582;5.276;2023-04-06T14:48:49;14.60;52.10
39017;DHT22;24784;45.582;5.276;2023-04-06T14:51:15;14.50;53.00
39017;DHT22;24784;45.582;5.276;2023-04-06T14:53:42;14.30;52.90
39017;DHT22;24784;45.582;5.276;2023-04-06T14:56:08;14.20;50.70
39017;DHT22;24784;45.582;5.276;2023-04-06T14:58:34;14.40;52.40
39017;DHT22;24784;45.582;5.276;2023-04-06T15:01:00;14.60;54.00
39017;DHT22;24784;45.582;5.276;2023-04-06T15:03:27;14.20;49.50
39017;DHT22;24784;45.582;5.276;2023-04-06T15:05:55;14.40;51.20
39017;DHT22;24784;45.582;5.276;2023-04-06T15:08:22;14.50;52.70
39017;DHT22;24784;45.582;5.276;2023-04-06T15:10:48;14.70;55.70
39017;DHT22;24784;45.582;5.276;2023-04-06T15:13:14;14.80;53.50
39017;DHT22;24784;45.582;5.276;2023-04-06T15:15:41;15.00;55.10
39017;DHT22;24784;45.582;5.276;2023-04-06T15:18:08;15.00;51.40
39017;DHT22;24784;45.582;5.276;2023-04-06T15:20:34;15.00;52.60
39017;DHT22;24784;45.582;5.276;2023-04-06T15:23:01;14.70;51.10
39017;DHT22;24784;45.582;5.276;2023-04-06T15:25:27;14.90;51.40
39017;DHT22;24784;45.582;5.276;2023-04-06T15:27:54;15.00;51.90
39017;DHT22;24784;45.582;5.276;2023-04-06T15:30:20;15.00;53.30
39017;DHT22;24784;45.582;5.276;2023-04-06T15:32:57;15.00;52.00
39017;DHT22;24784;45.582;5.276;2023-04-06T15:35:24;15.10;52.30
39017;DHT22;24784;45.582;5.276;2023-04-06T15:37:51;14.70;51.10
39017;DHT22;24784;45.582;5.276;2023-04-06T15:40:17;14.60;52.00
39017;DHT22;24784;45.582;5.276;2023-04-06T15:42:43;14.60;51.00
39017;DHT22;24784;45.582;5.276;2023-04-06T15:45:12;14.80;52.10
39017;DHT22;24784;45.582;5.276;2023-04-06T15:47:39;14.70;51.80